Time;durP1;ratioP1;P1;durP2;ratioP2;P2;SDS_P1;SDS_P2;PMS_P1;PMS_P2;Temp;Humidity;BMP_temperature;BMP_pressure;BME280_temperature;BME280_humidity;BME280_pressure;Samples;Min_cycle;Max_cycle;Signal;HPM_P1;HPM_P2
2021/06/19 00:01:33;;;;;;;7.07;4.95;;;;;;;19.12;59.68;100032.88;4982052;28;20054;-65
2021/06/19 00:04:00;;;;;;;7.85;4.78;;;;;;;19.03;60.08;100025.94;4984167;28;20152;-64
2021/06/19 00:06:28;;;;;;;5.80;4.63;;;;;;;18.96;60.50;100025.94;4983446;28;20054;-64
2021/06/19 00:08:54;;;;;;;5.85;4.38;;;;;;;18.90;60.43;100022.13;4987864;28;20042;-64
2021/06/19 00:11:20;;;;;;;7.18;4.68;;;;;;;18.83;60.59;100026.72;4988051;28;20050;-65
2021/06/19 00:33:59;;;;;;;7.22;5.60;;;;;;;18.56;62.01;100022.16;4981693;28;20501;-65
2021/06/19 00:36:26;;;;;;;5.82;5.15;;;;;;;18.56;62.18;100020.28;4983328;28;20581;-67
2021/06/19 00:38:52;;;;;;;7.15;5.47;;;;;;;18.56;62.10;100014.84;4989956;28;20104;-64
2021/06/19 00:41:18;;;;;;;7.22;5.25;;;;;;;18.55;62.47;100025.91;4992326;28;20584;-65
2021/06/19 00:43:45;;;;;;;6.90;4.93;;;;;;;18.49;62.51;100024.00;4991578;28;20050;-65
2021/06/19 00:46:12;;;;;;;7.57;4.75;;;;;;;18.42;62.76;100019.38;4976627;28;20509;-68
2021/06/19 00:48:38;;;;;;;8.60;5.13;;;;;;;18.38;63.00;100020.81;4992335;28;20049;-67
2021/06/19 00:51:06;;;;;;;6.60;5.65;;;;;;;18.47;62.82;100017.91;4991877;28;20054;-65
2021/06/19 00:53:33;;;;;;;6.88;5.57;;;;;;;18.45;62.88;100025.44;4986735;28;20078;-67
2021/06/19 00:56:01;;;;;;;6.38;5.32;;;;;;;18.40;63.31;100020.59;4973890;28;20047;-66
2021/06/19 00:58:28;;;;;;;6.22;5.47;;;;;;;18.41;63.15;100019.56;4983284;28;20061;-63
2021/06/19 01:00:54;;;;;;;6.95;5.40;;;;;;;18.40;63.64;100023.31;4983385;28;20120;-70
2021/06/19 01:03:20;;;;;;;6.00;4.97;;;;;;;18.44;63.40;100012.88;4981514;28;20061;-66
2021/06/19 01:05:49;;;;;;;6.22;5.25;;;;;;;18.43;63.33;100022.91;4984607;28;20051;-66
2021/06/19 01:08:16;;;;;;;8.57;6.35;;;;;;;18.45;63.57;100006.41;4979582;28;20561;-65
2021/06/19 01:10:43;;;;;;;6.18;4.95;;;;;;;18.45;63.63;100011.84;4988205;28;20061;-65
2021/06/19 01:13:09;;;;;;;8.18;5.28;;;;;;;18.41;63.58;100009.53;4984958;28;20050;-64
2021/06/19 01:15:36;;;;;;;6.80;5.88;;;;;;;18.47;63.56;100010.63;4975117;28;20039;-65
2021/06/19 01:18:02;;;;;;;7.95;6.30;;;;;;;18.46;63.73;100006.19;4982277;28;20458;-64
2021/06/19 01:20:29;;;;;;;7.00;5.40;;;;;;;18.37;63.96;100015.59;4987255;28;20057;-65
2021/06/19 01:22:56;;;;;;;7.97;7.00;;;;;;;18.40;63.84;100013.28;4986426;28;20455;-66
2021/06/19 01:25:26;;;;;;;8.63;6.28;;;;;;;18.38;64.11;100009.94;4987449;28;20054;-67
2021/06/19 01:27:54;;;;;;;7.88;6.22;;;;;;;18.38;64.32;100009.09;4983142;28;20051;-64
2021/06/19 01:30:23;;;;;;;7.82;5.68;;;;;;;18.35;64.42;100014.91;4983051;28;20477;-63
2021/06/19 01:32:50;;;;;;;7.57;6.13;;;;;;;18.34;64.54;100018.69;4978703;28;20069;-69
2021/06/19 01:35:17;;;;;;;6.30;5.03;;;;;;;18.36;64.44;100011.19;4987919;28;20124;-66
2021/06/19 01:37:45;;;;;;;7.80;6.05;;;;;;;18.31;64.32;100019.91;4986678;28;20059;-66
2021/06/19 01:40:15;;;;;;;7.15;5.25;;;;;;;18.33;64.72;100011.56;4984904;28;20108;-68
2021/06/19 01:42:45;;;;;;;6.53;5.90;;;;;;;18.37;65.01;100012.88;4979791;28;20498;-68
2021/06/19 01:45:14;;;;;;;6.78;6.07;;;;;;;18.40;64.91;100013.28;4986178;28;20042;-68
2021/06/19 01:47:41;;;;;;;7.65;6.03;;;;;;;18.44;64.13;100010.16;4986566;28;20560;-64
2021/06/19 01:50:08;;;;;;;8.23;6.10;;;;;;;18.38;64.72;100009.94;4986498;28;20047;-65
2021/06/19 01:52:34;;;;;;;8.70;5.85;;;;;;;18.37;64.92;100000.13;4985547;28;20077;-69
2021/06/19 01:55:01;;;;;;;9.60;7.93;;;;;;;18.35;65.21;100002.19;4981286;28;20112;-66
2021/06/19 01:57:27;;;;;;;7.32;6.25;;;;;;;18.34;65.51;99994.22;4990201;28;20079;-65
2021/06/19 02:00:01;;;;;;;8.15;6.57;;;;;;;18.35;65.31;99991.34;4988333;28;20050;-72
2021/06/19 02:02:28;;;;;;;8.23;6.63;;;;;;;18.35;65.08;99991.34;4974365;28;20499;-67
2021/06/19 02:04:54;;;;;;;10.20;8.25;;;;;;;18.26;65.67;99995.25;4987222;28;20112;-69
2021/06/19 02:07:20;;;;;;;7.72;5.95;;;;;;;18.28;65.84;99987.72;4981246;28;20058;-67
2021/06/19 02:09:47;;;;;;;7.60;6.32;;;;;;;18.27;65.49;99985.22;4980850;28;20046;-65
2021/06/19 02:12:14;;;;;;;7.68;5.45;;;;;;;18.20;65.58;99992.47;4979797;28;20054;-65
2021/06/19 02:14:40;;;;;;;6.28;5.50;;;;;;;18.12;65.84;100007.06;4983211;28;20132;-69
2021/06/19 02:17:08;;;;;;;6.88;6.07;;;;;;;18.06;65.97;100005.97;4981617;28;20054;-67
2021/06/19 02:19:34;;;;;;;8.65;6.20;;;;;;;18.06;66.30;99995.13;4985508;28;20051;-70
2021/06/19 02:22:01;;;;;;;10.95;6.38;;;;;;;18.05;66.27;100003.47;4986490;28;20109;-67
2021/06/19 02:24:27;;;;;;;6.57;5.82;;;;;;;18.04;66.45;100009.94;4984203;28;20121;-64
2021/06/19 02:27:07;;;;;;;7.57;6.25;;;;;;;18.00;66.71;100004.06;4986542;28;20105;-67
2021/06/19 02:29:33;;;;;;;6.63;5.55;;;;;;;17.97;66.84;100000.88;4987580;28;20142;-69
2021/06/19 02:32:00;;;;;;;6.55;5.85;;;;;;;17.92;66.86;100000.66;4990263;28;20112;-64
2021/06/19 02:34:27;;;;;;;9.18;7.65;;;;;;;17.83;67.92;100000.78;4994659;28;20046;-66
2021/06/19 02:36:54;;;;;;;8.48;7.10;;;;;;;17.81;67.74;100002.03;4994468;28;20395;-68
2021/06/19 02:39:20;;;;;;;8.48;6.35;;;;;;;17.87;67.54;100005.81;4987569;28;20454;-65
2021/06/19 02:41:46;;;;;;;8.93;6.53;;;;;;;17.79;67.79;100002.22;4991789;28;20050;-65
2021/06/19 02:44:13;;;;;;;8.00;6.13;;;;;;;17.77;67.73;100004.31;4991284;28;20046;-66
2021/06/19 02:46:39;;;;;;;7.03;6.32;;;;;;;17.75;67.80;99995.50;4991701;28;20510;-65
2021/06/19 02:49:05;;;;;;;7.82;7.03;;;;;;;17.74;67.75;99996.53;4974743;28;20499;-70
2021/06/19 02:51:33;;;;;;;11.20;7.03;;;;;;;17.67;67.91;99998.34;4981680;28;20498;-66
2021/06/19 02:53:59;;;;;;;10.00;6.72;;;;;;;17.65;68.23;100003.13;4984618;28;20113;-69
2021/06/19 02:56:26;;;;;;;6.40;5.80;;;;;;;17.62;68.21;100003.50;4975007;28;20400;-68
2021/06/19 02:58:52;;;;;;;11.02;8.20;;;;;;;17.57;68.67;100005.13;4989347;28;20042;-67
2021/06/19 03:01:18;;;;;;;7.57;6.78;;;;;;;17.56;68.64;100003.47;4986838;28;20499;-65
2021/06/19 03:03:45;;;;;;;9.35;7.55;;;;;;;17.61;68.57;100014.56;4987566;28;20046;-65
2021/06/19 03:06:11;;;;;;;9.05;8.02;;;;;;;17.61;68.58;100009.13;4987364;28;20360;-65
2021/06/19 03:08:39;;;;;;;10.15;8.57;;;;;;;17.61;68.74;100011.84;4982280;28;20499;-66
2021/06/19 03:11:05;;;;;;;11.25;7.88;;;;;;;17.57;68.98;100019.53;4979653;28;20097;-72
2021/06/19 03:13:32;;;;;;;11.02;8.05;;;;;;;17.59;69.04;100019.34;4985658;28;20085;-64
2021/06/19 03:15:58;;;;;;;7.95;7.15;;;;;;;17.66;69.04;100015.66;4987212;28;20462;-67
2021/06/19 03:18:24;;;;;;;11.18;7.65;;;;;;;17.68;69.18;100015.47;4981753;28;20104;-66
2021/06/19 03:20:51;;;;;;;7.72;6.93;;;;;;;17.73;68.97;100022.00;4988540;28;20474;-66
2021/06/19 03:23:17;;;;;;;8.38;7.03;;;;;;;17.76;68.81;100020.78;4980631;28;20046;-65
2021/06/19 03:25:45;;;;;;;9.77;7.50;;;;;;;17.77;68.79;100028.75;4981615;28;20584;-66
2021/06/19 03:28:14;;;;;;;9.98;7.85;;;;;;;17.78;68.86;100019.56;4982832;28;20051;-65
2021/06/19 03:30:44;;;;;;;7.65;6.85;;;;;;;17.78;68.79;100025.00;4981386;28;20450;-69
2021/06/19 03:33:11;;;;;;;15.10;9.57;;;;;;;17.75;68.75;100024.50;4988307;28;20054;-64
2021/06/19 03:35:38;;;;;;;10.45;8.70;;;;;;;17.73;69.10;100027.44;4978710;28;20116;-64
2021/06/19 03:38:06;;;;;;;12.35;11.05;;;;;;;17.75;69.46;100014.50;4982611;28;20047;-64
2021/06/19 03:40:34;;;;;;;8.75;7.85;;;;;;;17.79;69.59;100021.22;4981166;28;20066;-66
2021/06/19 03:43:02;;;;;;;10.93;8.38;;;;;;;17.83;69.63;100019.78;5002452;23;20069;-66
2021/06/19 03:45:30;;;;;;;10.55;8.93;;;;;;;17.90;69.42;100008.16;4983817;28;20069;-66
2021/06/19 03:47:57;;;;;;;11.00;9.90;;;;;;;17.94;70.01;100020.28;4982862;28;20062;-68
2021/06/19 03:50:25;;;;;;;11.77;10.25;;;;;;;18.00;70.06;100016.81;4974384;28;20046;-68
2021/06/19 03:52:52;;;;;;;13.65;10.07;;;;;;;18.01;70.02;100015.75;4973593;28;20097;-68
2021/06/19 03:55:19;;;;;;;10.88;9.77;;;;;;;18.04;69.90;100023.50;4991540;28;20605;-68
2021/06/19 03:57:45;;;;;;;13.10;9.23;;;;;;;18.12;69.86;100026.09;4990962;28;20046;-67
2021/06/19 04:00:16;;;;;;;10.63;8.65;;;;;;;18.16;70.04;100032.78;4982693;28;20051;-68
2021/06/19 04:02:43;;;;;;;7.20;6.45;;;;;;;18.29;69.47;100030.16;4978084;28;20046;-68
2021/06/19 04:05:11;;;;;;;8.95;7.80;;;;;;;18.46;68.85;100027.94;4982038;28;20101;-70
2021/06/19 04:07:38;;;;;;;11.43;7.43;;;;;;;18.63;68.89;100028.47;4984969;28;20062;-68
2021/06/19 04:10:05;;;;;;;10.40;7.40;;;;;;;18.76;68.52;100025.00;4988853;28;20051;-67
2021/06/19 04:12:32;;;;;;;11.18;7.97;;;;;;;18.92;68.12;100020.03;4989461;28;20729;-66
2021/06/19 04:14:58;;;;;;;10.00;7.93;;;;;;;19.07;68.03;100029.94;4984855;28;20513;-67
2021/06/19 04:17:26;;;;;;;11.25;7.72;;;;;;;19.13;67.83;100027.22;4986476;28;20054;-67
2021/06/19 04:19:52;;;;;;;8.75;7.60;;;;;;;19.22;67.67;100022.44;4984944;28;20047;-67
2021/06/19 04:22:19;;;;;;;7.53;6.82;;;;;;;19.35;67.45;100033.34;4982603;28;20080;-69
2021/06/19 04:24:45;;;;;;;8.02;6.85;;;;;;;19.48;67.20;100017.03;4984831;28;20073;-66
2021/06/19 04:27:14;;;;;;;10.00;8.63;;;;;;;19.60;66.94;100011.03;4992037;28;20055;-66
2021/06/19 04:29:41;;;;;;;13.30;8.30;;;;;;;19.72;66.89;100020.25;4992318;28;20072;-66
2021/06/19 04:32:09;;;;;;;9.68;8.05;;;;;;;19.87;66.41;100009.97;4991997;28;20351;-66
2021/06/19 04:34:38;;;;;;;8.85;7.18;;;;;;;20.03;66.17;100009.56;4989549;28;20518;-67
2021/06/19 04:37:05;;;;;;;9.68;7.25;;;;;;;20.18;65.83;100016.66;4987016;28;20047;-66
2021/06/19 04:39:31;;;;;;;10.30;8.73;;;;;;;20.31;65.20;100019.34;4986524;28;20054;-67
2021/06/19 04:42:02;;;;;;;13.55;9.95;;;;;;;20.39;65.04;100025.41;4983720;28;20052;-70
2021/06/19 04:44:40;;;;;;;11.35;10.05;;;;;;;20.53;64.25;100019.97;4982401;28;20058;-68
2021/06/19 04:47:07;;;;;;;11.10;10.00;;;;;;;20.75;63.90;100018.63;4981814;28;20052;-69
2021/06/19 04:49:33;;;;;;;9.35;8.27;;;;;;;20.94;63.21;100016.84;4976452;28;20057;-66
2021/06/19 04:52:01;;;;;;;10.32;9.20;;;;;;;21.14;62.51;100016.75;4979708;28;20059;-66
2021/06/19 04:54:28;;;;;;;8.70;7.88;;;;;;;21.32;62.44;100013.34;4977396;28;20047;-69
2021/06/19 04:56:54;;;;;;;11.70;10.10;;;;;;;21.48;61.26;100016.38;4974837;28;20069;-68
2021/06/19 04:59:21;;;;;;;11.07;9.98;;;;;;;21.63;61.99;100031.59;4976272;28;20522;-68
2021/06/19 05:01:47;;;;;;;10.95;9.15;;;;;;;21.78;61.11;100024.75;4979445;28;20051;-67
2021/06/19 05:04:13;;;;;;;11.02;9.93;;;;;;;21.95;60.25;100024.19;4980646;28;20051;-69
2021/06/19 05:06:40;;;;;;;8.50;7.70;;;;;;;22.08;59.35;100024.13;4987227;28;20046;-68
2021/06/19 05:09:08;;;;;;;12.13;9.63;;;;;;;22.22;59.06;100027.56;4989001;28;20101;-68
2021/06/19 05:11:35;;;;;;;11.07;9.55;;;;;;;22.30;58.38;100017.16;4988732;28;20046;-68
2021/06/19 05:14:01;;;;;;;15.65;11.10;;;;;;;22.43;57.73;100014.28;4985536;28;20145;-68
2021/06/19 05:16:28;;;;;;;11.40;8.25;;;;;;;22.54;57.69;100026.38;4987376;28;20129;-68
2021/06/19 05:18:54;;;;;;;10.93;9.40;;;;;;;22.65;57.33;100025.63;4987624;28;20101;-68
2021/06/19 05:21:20;;;;;;;10.70;9.70;;;;;;;22.78;56.72;100019.16;4986332;28;20054;-67
2021/06/19 05:23:47;;;;;;;13.75;11.30;;;;;;;22.87;57.21;100020.56;4985665;28;20545;-67
2021/06/19 05:26:15;;;;;;;10.73;9.63;;;;;;;23.00;56.26;100014.06;4982415;28;20570;-66
2021/06/19 05:28:41;;;;;;;15.90;10.48;;;;;;;23.08;55.84;100013.72;4983920;28;20490;-67
2021/06/19 05:31:08;;;;;;;13.35;11.48;;;;;;;23.23;56.23;100016.06;4980755;28;20553;-66
2021/06/19 05:33:34;;;;;;;13.70;10.65;;;;;;;23.35;54.90;100016.94;4977568;28;20419;-68
2021/06/19 05:36:00;;;;;;;12.00;9.77;;;;;;;23.51;55.36;100012.69;4979138;28;20540;-67
2021/06/19 05:38:27;;;;;;;9.15;8.23;;;;;;;23.67;54.23;100016.69;4976589;28;20569;-67
2021/06/19 05:40:53;;;;;;;14.55;11.02;;;;;;;23.78;53.95;100015.88;4980438;28;20061;-67
2021/06/19 05:43:21;;;;;;;12.57;11.27;;;;;;;23.83;54.23;100005.06;4983950;28;20058;-67
2021/06/19 05:45:47;;;;;;;14.93;11.02;;;;;;;23.84;53.43;100014.94;4986922;28;20046;-68
2021/06/19 05:48:13;;;;;;;14.73;10.32;;;;;;;24.12;53.72;100008.75;4985737;28;20573;-68
2021/06/19 05:50:40;;;;;;;15.50;11.07;;;;;;;24.24;54.62;100017.81;4973596;28;20058;-67
2021/06/19 05:53:06;;;;;;;12.70;11.07;;;;;;;24.24;53.27;100020.56;4979294;28;20054;-66
2021/06/19 05:55:32;;;;;;;11.68;10.48;;;;;;;24.39;52.86;100017.34;4986273;28;20054;-68
2021/06/19 05:57:59;;;;;;;9.32;8.38;;;;;;;24.59;53.08;100020.56;4987477;28;20057;-66
2021/06/19 06:00:28;;;;;;;11.10;8.93;;;;;;;24.71;52.73;100012.31;4993297;28;20109;-67
2021/06/19 06:02:54;;;;;;;13.10;10.80;;;;;;;24.81;52.64;100018.00;4993497;28;20138;-68
2021/06/19 06:05:21;;;;;;;11.63;10.52;;;;;;;24.90;52.37;100019.31;4989007;28;20518;-67
2021/06/19 06:07:47;;;;;;;10.07;8.38;;;;;;;25.12;52.46;100016.75;4990302;28;20039;-68
2021/06/19 06:10:14;;;;;;;9.75;8.75;;;;;;;25.36;51.41;100014.75;4991356;28;20047;-66
2021/06/19 06:12:41;;;;;;;14.40;10.48;;;;;;;25.43;51.06;100020.06;4987271;28;20042;-66
2021/06/19 06:15:09;;;;;;;14.88;10.43;;;;;;;25.59;51.01;100024.78;4989148;28;20051;-66
2021/06/19 06:17:37;;;;;;;11.60;10.02;;;;;;;25.66;50.18;100025.44;4990496;28;20108;-67
2021/06/19 06:20:04;;;;;;;15.07;10.27;;;;;;;25.76;50.30;100024.81;4987378;28;20053;-67
2021/06/19 06:22:31;;;;;;;15.10;9.48;;;;;;;26.03;50.13;100030.47;4985508;28;20050;-66
2021/06/19 06:24:57;;;;;;;11.90;10.77;;;;;;;26.07;49.49;100028.91;4989446;28;20050;-66
2021/06/19 06:27:23;;;;;;;11.43;10.32;;;;;;;26.17;49.86;100029.06;4985482;28;20051;-68
2021/06/19 06:29:50;;;;;;;15.10;11.23;;;;;;;26.36;50.53;100029.59;4989292;28;20130;-65
2021/06/19 06:32:17;;;;;;;10.75;9.65;;;;;;;26.62;49.10;100028.91;4983892;28;20053;-66
2021/06/19 06:34:45;;;;;;;10.35;9.20;;;;;;;26.80;48.38;100028.59;4984225;28;20419;-65
2021/06/19 06:37:11;;;;;;;11.07;9.93;;;;;;;26.85;48.49;100029.75;4985539;28;20564;-65
2021/06/19 06:39:38;;;;;;;9.02;7.10;;;;;;;27.07;47.19;100036.13;4986136;28;20506;-66
2021/06/19 06:42:05;;;;;;;8.30;7.50;;;;;;;27.24;47.01;100031.38;4962370;28;20565;-65
2021/06/19 06:44:32;;;;;;;10.90;9.25;;;;;;;27.37;48.60;100025.44;4987434;28;20085;-63
2021/06/19 06:49:45;;;;;;;10.77;7.53;;;;;;;27.88;46.05;100031.44;5309977;23;20061;-68
2021/06/19 06:52:11;;;;;;;9.35;8.45;;;;;;;28.06;46.50;100029.38;4987165;28;20058;-65
2021/06/19 06:54:39;;;;;;;7.70;6.30;;;;;;;28.26;45.09;100027.59;4988480;28;20061;-66
2021/06/19 06:57:06;;;;;;;11.40;9.38;;;;;;;28.20;44.96;100023.16;4988575;28;20097;-65
2021/06/19 06:59:33;;;;;;;12.18;9.65;;;;;;;28.26;45.27;100027.59;4985194;28;20050;-66
2021/06/19 07:01:59;;;;;;;12.60;8.80;;;;;;;28.36;45.55;100037.06;4991134;28;20518;-66
2021/06/19 07:04:25;;;;;;;8.35;7.55;;;;;;;28.53;45.88;100046.00;4964224;28;20046;-65
2021/06/19 07:06:53;;;;;;;10.55;9.32;;;;;;;28.68;45.91;100042.53;4987019;28;20038;-67
2021/06/19 07:09:19;;;;;;;11.70;7.95;;;;;;;28.91;45.24;100027.47;4985478;28;20055;-64
2021/06/19 07:11:46;;;;;;;11.70;8.75;;;;;;;29.14;45.93;100027.00;4992632;28;20137;-68
2021/06/19 07:14:12;;;;;;;8.80;7.75;;;;;;;29.38;44.47;100025.41;4979736;28;20105;-65
2021/06/19 07:16:39;;;;;;;9.55;8.65;;;;;;;29.48;43.98;100043.13;4973385;28;20414;-70
2021/06/19 07:19:05;;;;;;;9.88;8.88;;;;;;;29.62;44.94;100038.75;4981477;28;20054;-64
2021/06/19 07:21:31;;;;;;;9.35;8.45;;;;;;;29.75;43.99;100048.44;4989878;28;20077;-64
2021/06/19 07:24:00;;;;;;;8.38;7.57;;;;;;;29.97;43.06;100037.94;4987341;28;20046;-65
2021/06/19 07:26:26;;;;;;;10.60;7.45;;;;;;;30.14;42.42;100045.97;4990696;28;20058;-68
2021/06/19 07:28:52;;;;;;;9.38;8.48;;;;;;;30.09;42.18;100048.75;4990615;28;20053;-67
2021/06/19 07:31:19;;;;;;;10.30;8.02;;;;;;;30.21;42.48;100041.81;5001098;23;20053;-66
2021/06/19 07:33:45;;;;;;;8.13;7.22;;;;;;;30.38;42.16;100048.97;5003195;28;20053;-65
2021/06/19 07:36:12;;;;;;;9.07;8.18;;;;;;;30.40;41.73;100057.84;5001282;28;20050;-66
2021/06/19 07:38:38;;;;;;;9.18;8.27;;;;;;;30.31;42.52;100067.81;4994451;28;20053;-65
2021/06/19 07:41:06;;;;;;;11.93;9.00;;;;;;;30.32;41.68;100067.56;5006534;28;20567;-69
2021/06/19 07:43:32;;;;;;;11.05;7.93;;;;;;;30.17;41.93;100073.06;4994933;28;20718;-67
2021/06/19 07:46:00;;;;;;;9.73;8.75;;;;;;;30.08;41.78;100066.47;5000380;28;20465;-67
2021/06/19 07:48:27;;;;;;;8.85;7.95;;;;;;;30.17;41.22;100067.53;4990998;28;20141;-66
2021/06/19 07:50:53;;;;;;;8.45;6.93;;;;;;;30.40;40.75;100066.97;4996932;28;20136;-67
2021/06/19 07:53:19;;;;;;;11.63;7.45;;;;;;;30.48;39.60;100058.09;4997462;28;20400;-68
2021/06/19 07:55:46;;;;;;;9.02;7.55;;;;;;;30.61;40.88;100065.00;4996990;28;20053;-66
2021/06/19 07:58:13;;;;;;;7.82;6.95;;;;;;;30.82;40.11;100068.56;4997701;28;20050;-66
2021/06/19 08:00:40;;;;;;;7.97;6.70;;;;;;;30.91;37.57;100069.66;4998868;28;20046;-67
2021/06/19 08:03:06;;;;;;;7.03;6.07;;;;;;;31.08;38.08;100072.06;5001298;28;20049;-66
2021/06/19 08:05:33;;;;;;;7.82;5.35;;;;;;;31.13;36.72;100067.31;5008237;28;20057;-65
2021/06/19 08:07:59;;;;;;;5.50;4.97;;;;;;;31.28;36.19;100069.25;5001798;28;20619;-66
2021/06/19 08:10:26;;;;;;;7.43;5.55;;;;;;;31.43;36.85;100062.78;5004258;28;20057;-68
2021/06/19 08:12:53;;;;;;;8.57;5.22;;;;;;;31.70;36.17;100060.38;5009404;28;20149;-65
2021/06/19 08:15:21;;;;;;;9.05;5.13;;;;;;;31.85;34.83;100056.69;5000726;28;20070;-67
2021/06/19 08:17:48;;;;;;;6.97;5.00;;;;;;;31.78;33.88;100058.13;4995221;28;20552;-68
2021/06/19 08:20:15;;;;;;;6.47;4.90;;;;;;;31.84;32.62;100062.50;4993340;28;20117;-66
2021/06/19 08:22:42;;;;;;;6.72;5.00;;;;;;;31.74;33.79;100057.03;4994349;28;20046;-68
2021/06/19 08:25:09;;;;;;;6.47;5.38;;;;;;;31.78;33.36;100055.38;4996036;28;20077;-66
2021/06/19 08:27:36;;;;;;;5.90;4.85;;;;;;;31.97;34.58;100050.78;5003669;28;20046;-67
2021/06/19 08:30:03;;;;;;;5.82;5.22;;;;;;;32.02;33.09;100045.16;5004672;28;20053;-66
2021/06/19 08:32:30;;;;;;;8.75;4.80;;;;;;;31.91;32.27;100049.16;5001753;28;20081;-67
2021/06/19 08:34:57;;;;;;;5.47;4.90;;;;;;;31.93;32.03;100049.69;5009798;28;20100;-67
2021/06/19 08:37:23;;;;;;;6.20;4.57;;;;;;;32.08;31.64;100049.53;4999633;28;20101;-66
2021/06/19 08:39:49;;;;;;;6.53;4.63;;;;;;;32.28;32.45;100042.97;4990652;28;20046;-65
2021/06/19 08:42:16;;;;;;;8.90;5.15;;;;;;;32.35;33.77;100042.69;5000243;28;20053;-65
2021/06/19 08:44:44;;;;;;;5.57;4.63;;;;;;;32.49;31.10;100055.56;5003296;28;20050;-67
2021/06/19 08:47:11;;;;;;;4.60;4.07;;;;;;;32.54;30.91;100038.84;4992241;28;20520;-66
2021/06/19 08:49:39;;;;;;;6.10;4.63;;;;;;;32.69;31.11;100037.88;4999474;28;20442;-67
2021/06/19 08:52:06;;;;;;;6.50;4.07;;;;;;;32.63;30.41;100029.88;4989690;28;20050;-65
2021/06/19 08:54:39;;;;;;;5.20;4.60;;;;;;;32.82;31.55;100034.41;4999403;28;20045;-67
2021/06/19 08:57:07;;;;;;;5.22;4.60;;;;;;;32.95;30.40;100038.41;5002105;28;20447;-67
2021/06/19 08:59:34;;;;;;;13.27;6.28;;;;;;;33.14;30.39;100038.44;4998353;28;20577;-64
2021/06/19 09:02:00;;;;;;;5.57;3.88;;;;;;;33.04;27.42;100035.81;4999325;28;20108;-66
2021/06/19 09:04:27;;;;;;;6.40;4.30;;;;;;;32.83;28.82;100030.50;5000291;28;20235;-67
2021/06/19 09:06:54;;;;;;;6.05;3.75;;;;;;;33.05;29.47;100027.16;5003439;28;20053;-68
2021/06/19 09:09:21;;;;;;;6.25;4.05;;;;;;;33.15;28.83;100023.41;5000440;28;20479;-65
2021/06/19 09:11:49;;;;;;;6.40;3.88;;;;;;;33.27;27.97;100025.72;5004100;28;20046;-71
2021/06/19 09:14:18;;;;;;;4.57;4.13;;;;;;;33.13;28.92;100023.69;4994578;28;20105;-66
2021/06/19 09:16:56;;;;;;;6.40;4.07;;;;;;;33.30;28.29;100017.63;4999923;28;20070;-68
2021/06/19 09:19:24;;;;;;;5.88;4.00;;;;;;;33.43;28.46;100022.47;4997540;28;20042;-66
2021/06/19 09:22:11;;;;;;;6.80;4.28;;;;;;;33.49;27.67;100022.38;5003850;28;20104;-68
2021/06/19 09:24:45;;;;;;;5.07;4.32;;;;;;;33.64;27.78;100020.22;4999610;28;20053;-67
2021/06/19 09:27:32;;;;;;;4.75;4.22;;;;;;;33.68;27.65;100026.81;5004474;28;20085;-65
2021/06/19 09:30:13;;;;;;;6.82;4.50;;;;;;;34.05;28.04;100027.06;4991862;28;20468;-64
2021/06/19 09:32:44;;;;;;;6.78;4.80;;;;;;;34.22;28.09;100032.91;5000341;28;20054;-67
2021/06/19 09:35:12;;;;;;;5.07;4.50;;;;;;;34.19;28.19;100023.19;5000478;28;20047;-66
2021/06/19 09:37:41;;;;;;;7.75;5.07;;;;;;;34.18;27.83;100026.28;5003630;28;20664;-67
2021/06/19 09:40:20;;;;;;;7.25;4.47;;;;;;;34.33;28.91;100034.34;5007220;28;20050;-70
2021/06/19 09:42:47;;;;;;;6.03;5.10;;;;;;;34.25;30.13;100033.13;5006028;28;20053;-67
2021/06/19 09:45:18;;;;;;;5.90;5.00;;;;;;;34.09;29.50;100033.69;5009171;28;20508;-66
2021/06/19 09:47:45;;;;;;;9.18;5.60;;;;;;;33.74;30.56;100044.25;5003942;28;20093;-70
2021/06/19 09:50:12;;;;;;;7.47;5.65;;;;;;;33.54;30.59;100039.84;5006515;28;20120;-67
2021/06/19 09:52:40;;;;;;;6.15;5.30;;;;;;;33.61;29.32;100045.84;5002722;28;20046;-66
2021/06/19 09:55:11;;;;;;;8.10;5.90;;;;;;;33.58;30.17;100038.09;5002179;28;20049;-67
2021/06/19 09:57:39;;;;;;;7.30;6.30;;;;;;;33.33;30.61;100039.28;5006013;28;20136;-67
2021/06/19 10:00:07;;;;;;;8.50;5.90;;;;;;;33.47;30.00;100042.16;5003713;28;20058;-65
2021/06/19 10:02:34;;;;;;;6.72;5.15;;;;;;;33.62;30.57;100041.09;5004884;28;20524;-65
2021/06/19 10:05:00;;;;;;;6.50;5.13;;;;;;;33.60;30.39;100043.38;5005669;28;20066;-66
2021/06/19 10:07:28;;;;;;;7.68;5.28;;;;;;;33.58;30.66;100040.06;5012150;28;20046;-65
2021/06/19 10:09:57;;;;;;;6.35;4.95;;;;;;;33.83;30.31;100042.44;5007202;28;20517;-66
2021/06/19 10:12:25;;;;;;;6.55;5.95;;;;;;;33.48;32.45;100043.81;5006183;28;20053;-66
2021/06/19 10:14:55;;;;;;;11.30;6.20;;;;;;;32.89;32.11;100038.75;5005061;28;20046;-68
2021/06/19 10:17:23;;;;;;;9.13;6.60;;;;;;;33.15;31.71;100043.72;4992090;28;20042;-65
2021/06/19 10:19:51;;;;;;;8.77;5.90;;;;;;;33.20;32.07;100048.38;4992761;28;20046;-65
2021/06/19 10:22:18;;;;;;;7.20;5.47;;;;;;;32.92;34.55;100039.00;5003249;28;20145;-65
2021/06/19 10:24:45;;;;;;;8.23;5.78;;;;;;;32.85;33.29;100039.34;4998986;28;20105;-64
2021/06/19 10:27:18;;;;;;;8.70;5.07;;;;;;;32.97;32.28;100052.00;5000114;28;20042;-68
2021/06/19 10:29:47;;;;;;;7.97;7.10;;;;;;;32.96;33.18;100053.97;4999996;28;20050;-66
2021/06/19 10:32:34;;;;;;;8.48;5.85;;;;;;;32.97;33.15;100047.28;5006407;28;20050;-67
2021/06/19 10:35:00;;;;;;;9.35;6.50;;;;;;;32.92;33.28;100044.56;5008094;28;20057;-64
2021/06/19 10:37:30;;;;;;;10.27;7.03;;;;;;;32.90;34.11;100054.31;5010293;28;20049;-66
2021/06/19 10:39:57;;;;;;;8.27;6.00;;;;;;;32.85;34.15;100056.03;5009386;28;20416;-66
2021/06/19 10:42:28;;;;;;;8.30;6.78;;;;;;;33.17;34.04;100046.19;5010960;28;20543;-66
2021/06/19 10:44:58;;;;;;;9.55;7.35;;;;;;;33.56;31.69;100045.94;5008303;28;20054;-67
2021/06/19 10:47:26;;;;;;;7.32;6.65;;;;;;;33.75;30.85;100048.72;5011653;28;20227;-66
2021/06/19 10:49:53;;;;;;;12.02;6.57;;;;;;;33.73;32.37;100046.22;5010673;28;20056;-66
2021/06/19 10:52:38;;;;;;;11.95;8.25;;;;;;;33.72;31.06;100049.28;5011763;28;20054;-68
2021/06/19 10:55:19;;;;;;;8.13;6.85;;;;;;;34.00;31.18;100042.75;5011805;28;20050;-66
2021/06/19 10:57:48;;;;;;;7.72;6.90;;;;;;;33.78;30.60;100056.44;5011290;28;20053;-67
2021/06/19 11:00:26;;;;;;;8.50;5.82;;;;;;;33.90;30.36;100047.66;5008291;28;20053;-66
2021/06/19 11:02:53;;;;;;;9.45;6.72;;;;;;;34.31;30.88;100051.38;4986598;28;20427;-65
2021/06/19 11:05:50;;;;;;;9.20;7.00;;;;;;;34.01;30.59;100041.63;4999258;28;20454;-65
2021/06/19 11:08:17;;;;;;;7.47;6.28;;;;;;;34.18;31.00;100048.56;4998196;28;20062;-68
2021/06/19 11:10:58;;;;;;;10.85;6.78;;;;;;;34.48;29.20;100041.66;4997402;28;20050;-65
2021/06/19 11:13:48;;;;;;;8.75;6.65;;;;;;;34.49;31.28;100038.56;5001220;28;20120;-64
2021/06/19 11:16:54;;;;;;;9.80;6.60;;;;;;;34.71;29.01;100046.22;5003513;28;20100;-68
2021/06/19 11:19:35;;;;;;;12.13;6.63;;;;;;;35.01;31.17;100033.63;4993321;28;20212;-64
2021/06/19 11:22:34;;;;;;;9.27;6.22;;;;;;;35.24;27.71;100042.06;4997802;28;20494;-64
2021/06/19 11:25:50;;;;;;;9.95;6.63;;;;;;;34.99;28.15;100033.09;4998090;28;20046;-66
2021/06/19 11:28:28;;;;;;;10.98;6.90;;;;;;;35.26;28.04;100017.44;4967995;28;20398;-65
2021/06/19 11:30:58;;;;;;;10.10;5.90;;;;;;;35.73;27.96;100022.50;4991704;28;20505;-64
2021/06/19 11:33:43;;;;;;;8.93;6.18;;;;;;;35.91;27.24;100017.91;4997652;28;20486;-65
2021/06/19 11:36:33;;;;;;;10.07;6.65;;;;;;;36.21;26.83;100010.66;4989777;28;20046;-66
2021/06/19 11:39:05;;;;;;;7.95;6.35;;;;;;;36.28;26.26;100011.06;4996192;28;20331;-63
2021/06/19 11:41:34;;;;;;;10.68;7.20;;;;;;;35.64;26.80;100010.47;5002325;28;20045;-66
2021/06/19 11:44:01;;;;;;;8.95;6.68;;;;;;;35.52;28.22;100003.75;4993790;28;20453;-65
2021/06/19 11:46:29;;;;;;;10.80;7.30;;;;;;;35.35;27.46;100010.81;4993692;28;20050;-69
2021/06/19 11:48:57;;;;;;;11.63;6.60;;;;;;;35.34;27.59;100002.78;5000187;28;20049;-64
2021/06/19 11:51:26;;;;;;;9.77;7.22;;;;;;;35.34;28.35;99991.59;4997976;28;20648;-67